19.7°F
Current conditions from King Hill
Updated every 5 minutes
 
  Wednesday April 16, 2014

Station Historical Data
Daily Summary for September 4, 2011 Units:  Metric    English   Both
« Previous Day
Next Day »
Daily Weekly Monthly Yearly Custom
  High: Low: Average:
Temperature: 28.4 °C 19.9 °C 23.6 °C
Dew Point: 24.1 °C 18.8 °C 21.5 °C
Humidity: 97% 76% 89%
Wind Speed: 19.3km/h 0km/h 5.3km/h
Wind Gust: 35.4km/h - -
Wind- - SW
Pressure: 1009.7 hPa 1004.3 hPa -
Precipitation: 1.3 mm    
Historical Graphs
 
 
Tabular Data for September 4, 2011
Time Temperature Dew Point Pressure Wind Wind Speed Wind Gust Humidity Daily Rainfall
00:00 19.9 °C 19.1 °C 1009.7 hPa Calm     95% 0 mm
00:05 19.9 °C 19.1 °C 1009.7 hPa Calm     95% 0 mm
00:10 19.9 °C 19.1 °C 1009.7 hPa Calm     95% 0 mm
00:15 19.9 °C 19.3 °C 1009.7 hPa Calm     96% 0 mm
00:20 19.9 °C 19.3 °C 1009.7 hPa Calm     96% 0 mm
00:25 20 °C 19.3 °C 1009.7 hPa Calm     96% 0 mm
00:30 20 °C 19.3 °C 1009.7 hPa Calm     96% 0 mm
00:35 20 °C 19.3 °C 1009.7 hPa Calm     96% 0 mm
00:40 20 °C 19.3 °C 1009.7 hPa Calm     96% 0 mm
00:45 20.1 °C 19.4 °C 1009.7 hPa Calm     96% 0 mm
00:50 20.3 °C 19.6 °C 1009.7 hPa Calm     96% 0 mm
00:55 20.6 °C 19.9 °C 1009.7 hPa West 1.6 km/h 6.4 km/h 96% 0 mm
01:00 20.8 °C 20.1 °C 1009.7 hPa Calm   6.4 km/h 96% 0 mm
01:05 20.9 °C 20.4 °C 1009.4 hPa SW 3.2 km/h 8 km/h 97% 0 mm
01:10 21.1 °C 20.4 °C 1009.4 hPa Calm   8 km/h 96% 0 mm
01:15 21.1 °C 20.4 °C 1009.4 hPa SW 1.6 km/h 9.7 km/h 96% 0 mm
01:20 21.1 °C 20.4 °C 1009.4 hPa Calm   9.7 km/h 96% 0 mm
01:25 21.2 °C 20.5 °C 1009 hPa Calm   9.7 km/h 96% 0 mm
01:30 21.2 °C 20.6 °C 1009 hPa South 3.2 km/h 9.7 km/h 96% 0 mm
01:40 21.3 °C 20.6 °C 1009 hPa SSW 4.8 km/h 12.9 km/h 96% 0 mm
01:45 21.3 °C 20.6 °C 1009 hPa SW 4.8 km/h 12.9 km/h 96% 0 mm
01:50 21.3 °C 20.6 °C 1009 hPa SSW 6.4 km/h 9.7 km/h 96% 0 mm
01:55 21.3 °C 20.4 °C 1009 hPa Calm   9.7 km/h 95% 0 mm
02:00 21.2 °C 20.4 °C 1008.7 hPa SSW 1.6 km/h 8 km/h 95% 0 mm
02:05 21.2 °C 20.3 °C 1008.7 hPa Calm   8 km/h 95% 0 mm
02:10 21.2 °C 20.3 °C 1008.7 hPa SSW 1.6 km/h 8 km/h 95% 0 mm
02:15 21.2 °C 20.4 °C 1008.4 hPa Calm   11.3 km/h 95% 0 mm
02:20 21.3 °C 20.5 °C 1008.7 hPa Calm   11.3 km/h 95% 0 mm
02:25 21.4 °C 20.6 °C 1008.4 hPa SSW 1.6 km/h 11.3 km/h 95% 0 mm
02:30 21.4 °C 20.6 °C 1008.4 hPa SSW 1.6 km/h 11.3 km/h 95% 0 mm
02:40 21.6 °C 20.7 °C 1008.4 hPa SSW 4.8 km/h 11.3 km/h 95% 0 mm
02:45 21.6 °C 20.6 °C 1008.4 hPa Calm   9.7 km/h 94% 0 mm
02:50 21.6 °C 20.6 °C 1008.4 hPa South 3.2 km/h 11.3 km/h 94% 0 mm
02:55 21.6 °C 20.6 °C 1008 hPa Calm   11.3 km/h 94% 0 mm
03:00 21.6 °C 20.6 °C 1008 hPa Calm   6.4 km/h 94% 0 mm
03:05 21.5 °C 20.5 °C 1008 hPa Calm   8 km/h 94% 0 mm
03:10 21.5 °C 20.5 °C 1008 hPa South 1.6 km/h 9.7 km/h 94% 0 mm
03:15 21.5 °C 20.5 °C 1008 hPa Calm   9.7 km/h 94% 0 mm
03:20 21.5 °C 20.5 °C 1008 hPa Calm   6.4 km/h 94% 0 mm
03:25 21.4 °C 20.4 °C 1008 hPa SSW 1.6 km/h 9.7 km/h 94% 0 mm
03:30 21.4 °C 20.4 °C 1008 hPa SW 1.6 km/h 9.7 km/h 94% 0 mm
03:35 21.3 °C 20.3 °C 1008 hPa SSW 1.6 km/h 8 km/h 94% 0 mm
03:40 21.3 °C 20.3 °C 1007.7 hPa SSW 1.6 km/h 11.3 km/h 94% 0 mm
03:45 21.2 °C 20.2 °C 1007.7 hPa SW 1.6 km/h 11.3 km/h 94% 0 mm
03:50 21.2 °C 20.2 °C 1008 hPa SW 1.6 km/h 6.4 km/h 94% 0 mm
03:55 21.2 °C 20.2 °C 1008 hPa Calm   6.4 km/h 94% 0 mm
04:00 21.1 °C 20.1 °C 1008 hPa Calm     94% 0 mm
04:05 21 °C 20 °C 1008 hPa Calm     94% 0 mm
04:15 20.9 °C 20.1 °C 1007.7 hPa Calm   9.7 km/h 95% 0 mm
04:20 21.1 °C 20.2 °C 1007.7 hPa SSW 3.2 km/h 11.3 km/h 95% 0 mm
04:25 21.2 °C 20.4 °C 1007.7 hPa SSW 1.6 km/h 12.9 km/h 95% 0 mm
04:30 21.3 °C 20.4 °C 1007.7 hPa SSW 6.4 km/h 12.9 km/h 95% 0 mm
04:35 21.4 °C 20.6 °C 1007.7 hPa Calm   12.9 km/h 95% 0 mm
04:40 21.4 °C 20.6 °C 1007.7 hPa SW 4.8 km/h 12.9 km/h 95% 0 mm
04:45 21.5 °C 20.7 °C 1008 hPa SSW 1.6 km/h 12.9 km/h 95% 0 mm
04:50 21.6 °C 20.7 °C 1007.7 hPa SW 3.2 km/h 16.1 km/h 95% 0 mm
04:55 21.6 °C 20.8 °C 1007.7 hPa SW 3.2 km/h 16.1 km/h 95% 0 mm
05:00 21.7 °C 20.8 °C 1007.7 hPa SSW 1.6 km/h 16.1 km/h 95% 0 mm
05:05 21.8 °C 20.9 °C 1007.7 hPa SW 4.8 km/h 16.1 km/h 95% 0 mm
05:10 21.8 °C 21 °C 1007.7 hPa SW 8 km/h 16.1 km/h 95% 0 mm
05:15 21.8 °C 21 °C 1007.7 hPa SSW 3.2 km/h 16.1 km/h 95% 0 mm
05:20 21.8 °C 21 °C 1007.7 hPa SSW 8 km/h 17.7 km/h 95% 0 mm
05:25 21.8 °C 21 °C 1007.7 hPa SSW 4.8 km/h 19.3 km/h 95% 0 mm
05:30 21.8 °C 21 °C 1007.3 hPa SSW 9.7 km/h 19.3 km/h 95% 0 mm
05:35 21.9 °C 21.1 °C 1007.3 hPa SW 8 km/h 19.3 km/h 95% 0 mm
05:40 21.9 °C 21.1 °C 1007.3 hPa SSW 4.8 km/h 16.1 km/h 95% 0 mm
05:45 21.9 °C 21.1 °C 1007.3 hPa SSW 8 km/h 17.7 km/h 95% 0 mm
05:50 21.9 °C 21.1 °C 1007.3 hPa SSW 8 km/h 17.7 km/h 95% 0 mm
05:55 21.9 °C 21.1 °C 1007.7 hPa SSW 4.8 km/h 17.7 km/h 95% 0 mm
06:00 21.9 °C 21.1 °C 1007.7 hPa SSW 4.8 km/h 17.7 km/h 95% 0 mm
06:05 21.9 °C 21.1 °C 1007.7 hPa SSW 4.8 km/h 17.7 km/h 95% 0 mm
06:10 21.9 °C 21.1 °C 1007.7 hPa SSW 4.8 km/h 17.7 km/h 95% 0 mm
06:15 21.9 °C 21.1 °C 1007.7 hPa SW 4.8 km/h 17.7 km/h 95% 0 mm
06:20 21.8 °C 21 °C 1007.7 hPa SW 1.6 km/h 17.7 km/h 95% 0 mm
06:25 21.8 °C 21 °C 1007.7 hPa SW 4.8 km/h 14.5 km/h 95% 0 mm
06:30 21.8 °C 21 °C 1008 hPa SSW 3.2 km/h 14.5 km/h 95% 0 mm
06:35 21.8 °C 20.9 °C 1008 hPa SSW 3.2 km/h 12.9 km/h 95% 0 mm
06:40 21.8 °C 20.9 °C 1008 hPa SSW 3.2 km/h 12.9 km/h 95% 0 mm
06:45 21.8 °C 20.9 °C 1008 hPa SSW 3.2 km/h 12.9 km/h 95% 0 mm
06:50 21.8 °C 20.9 °C 1008 hPa South 3.2 km/h 12.9 km/h 95% 0 mm
06:55 21.7 °C 20.9 °C 1008 hPa SW 3.2 km/h 11.3 km/h 95% 0 mm
07:00 21.8 °C 20.9 °C 1008 hPa SSW 1.6 km/h 11.3 km/h 95% 0 mm
07:05 21.8 °C 20.9 °C 1008 hPa SSW 3.2 km/h 11.3 km/h 95% 0 mm
07:10 21.8 °C 20.9 °C 1008 hPa Calm   11.3 km/h 95% 0 mm
07:15 21.8 °C 20.9 °C 1008 hPa Calm   8 km/h 95% 0 mm
07:20 21.8 °C 21 °C 1008 hPa SSW 1.6 km/h 9.7 km/h 95% 0 mm
07:30 21.9 °C 21.1 °C 1008 hPa SSW 4.8 km/h 17.7 km/h 95% 0 mm
07:35 21.9 °C 21.1 °C 1008 hPa SSW 3.2 km/h 17.7 km/h 95% 0 mm
07:40 22.1 °C 21.2 °C 1008 hPa SW 3.2 km/h 11.3 km/h 95% 0 mm
07:45 22.1 °C 21.3 °C 1008 hPa SW 6.4 km/h 14.5 km/h 95% 0 mm
07:50 22.2 °C 21.4 °C 1007.7 hPa SSW 6.4 km/h 17.7 km/h 95% 0 mm
07:55 22.3 °C 21.5 °C 1007.7 hPa SSW 3.2 km/h 17.7 km/h 95% 0 mm
08:00 22.6 °C 21.6 °C 1007.7 hPa SW 4.8 km/h 16.1 km/h 94% 0 mm
08:05 22.7 °C 21.7 °C 1007.7 hPa SW 1.6 km/h 14.5 km/h 94% 0 mm
08:10 22.9 °C 21.9 °C 1007.7 hPa SSW 3.2 km/h 14.5 km/h 94% 0 mm
08:15 23.1 °C 21.9 °C 1007.3 hPa SSW 3.2 km/h 14.5 km/h 93% 0 mm
08:20 23.3 °C 21.9 °C 1007.3 hPa SSW 3.2 km/h 16.1 km/h 92% 0 mm
08:25 23.4 °C 21.8 °C 1007.3 hPa SSW 8 km/h 22.5 km/h 91% 0 mm
08:30 23.6 °C 22.2 °C 1007 hPa SSW 3.2 km/h 22.5 km/h 92% 0 mm
08:35 23.7 °C 22.1 °C 1007 hPa SSW 6.4 km/h 27.4 km/h 91% 0 mm
08:40 23.8 °C 22.1 °C 1007 hPa SSW 11.3 km/h 27.4 km/h 90% 0 mm
08:45 23.9 °C 22.2 °C 1007 hPa SW 8 km/h 22.5 km/h 90% 0 mm
08:50 24.1 °C 22.1 °C 1007 hPa SW 6.4 km/h 20.9 km/h 89% 0 mm
08:55 24.3 °C 22.3 °C 1007 hPa SW 6.4 km/h 20.9 km/h 89% 0 mm
09:00 24.6 °C 22.4 °C 1006.7 hPa SSW 6.4 km/h 27.4 km/h 88% 0 mm
09:05 24.7 °C 22.6 °C 1006.7 hPa SSW 4.8 km/h 27.4 km/h 88% 0 mm
09:10 24.9 °C 22.8 °C 1006.7 hPa SW 9.7 km/h 19.3 km/h 88% 0 mm
09:15 24.9 °C 22.6 °C 1006.7 hPa SW 4.8 km/h 19.3 km/h 87% 0 mm
09:20 25 °C 22.5 °C 1006.7 hPa SSW 4.8 km/h 20.9 km/h 86% 0 mm
09:25 25 °C 22.5 °C 1006.3 hPa SSW 8 km/h 20.9 km/h 86% 0 mm
09:30 25 °C 22.5 °C 1006.3 hPa SW 8 km/h 20.9 km/h 86% 0 mm
09:35 25.1 °C 22.6 °C 1006.3 hPa SSW 11.3 km/h 24.1 km/h 86% 0 mm
09:40 25.3 °C 22.8 °C 1006.3 hPa SSW 9.7 km/h 24.1 km/h 86% 0 mm
09:45 25.5 °C 22.8 °C 1006.3 hPa SW 11.3 km/h 29 km/h 85% 0 mm
09:50 25.7 °C 22.9 °C 1006.3 hPa SW 6.4 km/h 29 km/h 85% 0 mm
09:55 26 °C 23.1 °C 1006.3 hPa SW 4.8 km/h 22.5 km/h 84% 0 mm
10:00 26.3 °C 23.2 °C 1006.3 hPa SSW 9.7 km/h 20.9 km/h 83% 0 mm
10:05 26.2 °C 23.1 °C 1006.3 hPa SSW 9.7 km/h 32.2 km/h 83% 0 mm
10:10 26.4 °C 23.1 °C 1006.3 hPa SSW 11.3 km/h 32.2 km/h 82% 0 mm
10:15 26.7 °C 23.2 °C 1006.3 hPa SSW 11.3 km/h 27.4 km/h 81% 0 mm
10:20 26.9 °C 23.8 °C 1006.7 hPa SW 8 km/h 29 km/h 83% 0 mm
10:25 26.9 °C 23.2 °C 1006.7 hPa SSW 11.3 km/h 29 km/h 80% 0 mm
10:30 26.9 °C 23.2 °C 1006.7 hPa SW 11.3 km/h 29 km/h 80% 0 mm
10:35 27.2 °C 23.2 °C 1007 hPa SSW 8 km/h 29 km/h 79% 0 mm
10:40 27.2 °C 23 °C 1007 hPa SW 12.9 km/h 27.4 km/h 78% 0 mm
10:45 26.6 °C 22.8 °C 1006.7 hPa SSW 8 km/h 24.1 km/h 80% 0 mm
10:50 26.1 °C 22.6 °C 1007.3 hPa SW 4.8 km/h 22.5 km/h 81% 0 mm
10:55 25.5 °C 22.4 °C 1007.7 hPa West 11.3 km/h 22.5 km/h 83% 0 mm
11:00 24.8 °C 21.9 °C 1007.7 hPa WSW 19.3 km/h 30.6 km/h 84% 0.3 mm
11:05 23.7 °C 21.6 °C 1007.3 hPa SW 8 km/h 30.6 km/h 88% 0.3 mm
11:10 23.2 °C 21.3 °C 1007 hPa SW 8 km/h 30.6 km/h 89% 0.5 mm
11:15 22.9 °C 21.4 °C 1007 hPa SW 12.9 km/h 20.9 km/h 91% 0.5 mm
11:20 22.8 °C 21.3 °C 1007 hPa SW 9.7 km/h 22.5 km/h 91% 0.5 mm
11:25 22.8 °C 21.4 °C 1007 hPa SW 11.3 km/h 22.5 km/h 92% 0.5 mm
11:30 23.1 °C 21.9 °C 1006.7 hPa SSW 8 km/h 20.9 km/h 93% 0.5 mm
11:35 23.4 °C 22.2 °C 1006.7 hPa SW 6.4 km/h 19.3 km/h 93% 0.5 mm
11:45 24.1 °C 22.7 °C 1006.7 hPa SSW 6.4 km/h 29 km/h 92% 0.5 mm
11:50 24.3 °C 22.8 °C 1006.7 hPa SSW 6.4 km/h 24.1 km/h 91% 0.5 mm
11:55 24.5 °C 22.8 °C 1006.7 hPa SSW 8 km/h 25.7 km/h 90% 0.5 mm
12:00 25 °C 23.1 °C 1006.3 hPa South 6.4 km/h 27.4 km/h 89% 0.5 mm
12:05 25.5 °C 23.4 °C 1006.3 hPa SSW 3.2 km/h 27.4 km/h 88% 0.5 mm
12:10 25.7 °C 23.3 °C 1006.3 hPa SSW 3.2 km/h 20.9 km/h 87% 0.5 mm
12:15 25.8 °C 23.3 °C 1006.3 hPa SSW 8 km/h 20.9 km/h 86% 0.5 mm
12:20 26.2 °C 23.7 °C 1006.3 hPa SE 1.6 km/h 22.5 km/h 86% 0.5 mm
12:25 26.5 °C 23.2 °C 1006.3 hPa SSW 6.4 km/h 22.5 km/h 82% 0.5 mm
12:30 26.8 °C 23.8 °C 1006.7 hPa SW 3.2 km/h 20.9 km/h 84% 0.5 mm
12:35 26.8 °C 23.5 °C 1006.7 hPa SSW 6.4 km/h 20.9 km/h 82% 0.5 mm
12:40 26.8 °C 23.2 °C 1006.7 hPa SW 4.8 km/h 20.9 km/h 81% 0.5 mm
12:45 26.9 °C 23.8 °C 1006.3 hPa SSW 3.2 km/h 17.7 km/h 83% 0.5 mm
12:50 27.2 °C 23.8 °C 1006.3 hPa SW 3.2 km/h 14.5 km/h 82% 0.5 mm
12:55 27.4 °C 23.6 °C 1006.3 hPa SW 1.6 km/h 20.9 km/h 80% 0.5 mm
13:00 27.6 °C 23.6 °C 1006 hPa SSW 6.4 km/h 20.9 km/h 79% 0.5 mm
13:05 27.4 °C 23.1 °C 1006 hPa SSW 4.8 km/h 16.1 km/h 77% 0.5 mm
13:10 27.3 °C 23.1 °C 1006 hPa SW 3.2 km/h 14.5 km/h 78% 0.5 mm
13:15 27.1 °C 23.1 °C 1006 hPa SW 3.2 km/h 12.9 km/h 79% 0.5 mm
13:20 26.8 °C 23.3 °C 1006 hPa SSW 1.6 km/h 20.9 km/h 81% 0.5 mm
13:25 27.2 °C 23.4 °C 1006 hPa SSW 1.6 km/h 20.9 km/h 80% 0.5 mm
13:30 27.4 °C 23.3 °C 1006 hPa SW 3.2 km/h 17.7 km/h 78% 0.5 mm
13:40 27.2 °C 23.2 °C 1006 hPa SW 3.2 km/h 17.7 km/h 79% 0.5 mm
13:45 27.2 °C 23 °C 1006 hPa SSW 3.2 km/h 22.5 km/h 78% 0.5 mm
13:50 27.2 °C 23 °C 1006 hPa SSW 6.4 km/h 24.1 km/h 78% 0.5 mm
13:55 27.2 °C 23.4 °C 1006 hPa SW 4.8 km/h 24.1 km/h 80% 0.5 mm
14:00 27.2 °C 23.2 °C 1006 hPa SW 6.4 km/h 20.9 km/h 79% 0.5 mm
14:05 27.1 °C 23.1 °C 1006 hPa SW 4.8 km/h 19.3 km/h 79% 0.5 mm
14:10 27.1 °C 23.4 °C 1006 hPa SSW 3.2 km/h 19.3 km/h 80% 0.5 mm
14:15 27 °C 22.8 °C 1005.6 hPa SW 3.2 km/h 14.5 km/h 78% 0.5 mm
14:20 27 °C 23.4 °C 1005.6 hPa Calm   14.5 km/h 81% 0.5 mm
14:25 26.9 °C 22.8 °C 1005.6 hPa SW 9.7 km/h 16.1 km/h 78% 0.5 mm
14:30 26.8 °C 22.8 °C 1005.6 hPa SW 6.4 km/h 19.3 km/h 79% 0.5 mm
14:35 26.5 °C 22.6 °C 1005.6 hPa SW 4.8 km/h 19.3 km/h 79% 0.5 mm
14:40 26.3 °C 22.8 °C 1005.3 hPa Calm   14.5 km/h 81% 0.5 mm
14:45 26.4 °C 23.1 °C 1005.3 hPa Calm   14.5 km/h 82% 0.5 mm
14:50 26.7 °C 23.4 °C 1005.3 hPa Calm   6.4 km/h 82% 0.5 mm
14:55 27.2 °C 23.3 °C 1005.3 hPa SW 8 km/h 16.1 km/h 79% 0.5 mm
15:00 27.6 °C 23.6 °C 1005 hPa SW 3.2 km/h 16.1 km/h 79% 0.5 mm
15:05 28.3 °C 24.1 °C 1005 hPa SW 9.7 km/h 17.7 km/h 78% 0.5 mm
15:10 28.4 °C 24 °C 1005 hPa SSW 1.6 km/h 17.7 km/h 77% 0.5 mm
15:15 27.9 °C 23.3 °C 1005 hPa SW 4.8 km/h 19.3 km/h 76% 0.5 mm
15:20 27.3 °C 22.9 °C 1005 hPa SW 4.8 km/h 19.3 km/h 77% 0.5 mm
15:25 26.9 °C 22.8 °C 1005 hPa SSW 8 km/h 19.3 km/h 78% 0.5 mm
15:30 26.6 °C 22.7 °C 1005 hPa SW 4.8 km/h 17.7 km/h 79% 0.5 mm
15:35 26.5 °C 22.8 °C 1005 hPa SW 3.2 km/h 16.1 km/h 80% 0.5 mm
15:40 26.4 °C 22.7 °C 1005 hPa SW 6.4 km/h 19.3 km/h 80% 0.5 mm
15:45 26.5 °C 22.8 °C 1005 hPa SSW 6.4 km/h 20.9 km/h 80% 0.5 mm
15:50 26.3 °C 22.3 °C 1005 hPa SSW 9.7 km/h 20.9 km/h 79% 0.5 mm
15:55 25.9 °C 22.2 °C 1005 hPa SW 6.4 km/h 22.5 km/h 80% 0.5 mm
16:00 25.8 °C 22.1 °C 1005 hPa SW 8 km/h 22.5 km/h 80% 0.5 mm
16:05 25.6 °C 21.8 °C 1005 hPa SSW 1.6 km/h 17.7 km/h 80% 0.5 mm
16:10 25.3 °C 20.8 °C 1005 hPa SW 6.4 km/h 19.3 km/h 76% 0.5 mm
16:15 25.3 °C 21.6 °C 1005 hPa Calm   19.3 km/h 80% 0.5 mm
16:20 25.2 °C 21.6 °C 1005 hPa SW 4.8 km/h 14.5 km/h 80% 0.5 mm
16:25 25.2 °C 21.7 °C 1005 hPa SW 1.6 km/h 14.5 km/h 81% 0.5 mm
16:30 25.3 °C 21.6 °C 1005 hPa Calm   14.5 km/h 80% 0.5 mm
16:35 25.7 °C 21.9 °C 1005 hPa SSW 6.4 km/h 11.3 km/h 80% 0.5 mm
16:40 25.9 °C 22.2 °C 1005 hPa SSW 1.6 km/h 12.9 km/h 80% 0.5 mm
16:45 26 °C 22.3 °C 1005 hPa Calm   12.9 km/h 80% 0.5 mm
16:50 26.1 °C 22.3 °C 1005 hPa SW 3.2 km/h 19.3 km/h 80% 0.5 mm
16:55 25.9 °C 22.4 °C 1005 hPa SW 1.6 km/h 19.3 km/h 81% 0.5 mm
17:00 26.2 °C 22.7 °C 1005 hPa Calm   14.5 km/h 81% 0.5 mm
17:05 26.4 °C 22.7 °C 1004.6 hPa Calm   12.9 km/h 80% 0.5 mm
17:10 26.6 °C 22.9 °C 1004.6 hPa SW 1.6 km/h 11.3 km/h 80% 0.5 mm
17:15 26.8 °C 23.1 °C 1004.6 hPa WSW 1.6 km/h 11.3 km/h 80% 0.5 mm
17:20 26.9 °C 23.2 °C 1004.6 hPa SSW 3.2 km/h 9.7 km/h 80% 0.5 mm
17:25 26.9 °C 22.9 °C 1004.6 hPa SSW 3.2 km/h 11.3 km/h 79% 0.5 mm
17:30 26.8 °C 23.1 °C 1004.6 hPa SW 1.6 km/h 11.3 km/h 80% 0.5 mm
17:35 26.7 °C 23 °C 1004.6 hPa SW 3.2 km/h 12.9 km/h 80% 0.5 mm
17:40 26.8 °C 23.2 °C 1004.6 hPa SW 1.6 km/h 12.9 km/h 81% 0.5 mm
17:45 26.7 °C 23 °C 1004.6 hPa SW 1.6 km/h 9.7 km/h 80% 0.5 mm
17:50 26.7 °C 22.9 °C 1004.6 hPa SW 1.6 km/h 9.7 km/h 80% 0.5 mm
17:55 26.5 °C 22.8 °C 1004.6 hPa SW 3.2 km/h 11.3 km/h 80% 0.5 mm
18:00 26.3 °C 22.8 °C 1004.3 hPa Calm   11.3 km/h 81% 0.5 mm
18:05 26.3 °C 22.8 °C 1004.3 hPa Calm   9.7 km/h 81% 0.5 mm
18:10 26.3 °C 22.8 °C 1004.3 hPa Calm   12.9 km/h 81% 0.5 mm
18:15 26.2 °C 22.7 °C 1004.3 hPa Calm   12.9 km/h 81% 0.5 mm
18:20 26.2 °C 22.9 °C 1004.3 hPa Calm   6.4 km/h 82% 0.5 mm
18:25 26.1 °C 22.6 °C 1004.6 hPa Calm   4.8 km/h 81% 0.5 mm
18:30 25.9 °C 22.4 °C 1004.3 hPa SSW 3.2 km/h 11.3 km/h 81% 0.5 mm
18:35 25.7 °C 22.4 °C 1004.3 hPa WSW 1.6 km/h 11.3 km/h 82% 0.5 mm
18:40 25.4 °C 22.3 °C 1004.6 hPa Calm   11.3 km/h 83% 0.5 mm
18:45 25.2 °C 22.1 °C 1004.6 hPa SW 3.2 km/h 11.3 km/h 83% 0.5 mm
18:50 25 °C 22.1 °C 1004.6 hPa SW 1.6 km/h 11.3 km/h 84% 0.5 mm
18:55 24.9 °C 22 °C 1004.6 hPa SW 6.4 km/h 17.7 km/h 84% 0.5 mm
19:00 24.8 °C 21.9 °C 1004.6 hPa SW 3.2 km/h 17.7 km/h 84% 0.5 mm
19:05 24.8 °C 21.9 °C 1004.3 hPa SW 8 km/h 17.7 km/h 84% 0.5 mm
19:10 24.7 °C 21.8 °C 1004.3 hPa SW 8 km/h 19.3 km/h 84% 0.5 mm
19:15 24.7 °C 22.1 °C 1004.3 hPa SW 3.2 km/h 19.3 km/h 85% 0.5 mm
19:20 24.5 °C 22 °C 1004.6 hPa SSW 4.8 km/h 22.5 km/h 86% 1 mm
19:25 24.1 °C 22 °C 1004.6 hPa SSW 4.8 km/h 29 km/h 88% 1.3 mm
19:30 23.8 °C 21.8 °C 1004.6 hPa SW 1.6 km/h 29 km/h 89% 1.3 mm
19:40 23.4 °C 21.9 °C 1005.3 hPa West 1.6 km/h 12.9 km/h 91% 1.3 mm
19:45 23.3 °C 21.8 °C 1005.3 hPa SW 4.8 km/h 12.9 km/h 91% 1.3 mm
19:50 23.2 °C 21.6 °C 1005.3 hPa SSW 17.7 km/h 35.4 km/h 91% 1.3 mm
19:55 22.6 °C 20.5 °C 1005.3 hPa SW 11.3 km/h 35.4 km/h 88% 1.3 mm
20:00 22.2 °C 19.9 °C 1005.6 hPa SW 8 km/h 32.2 km/h 87% 1.3 mm
20:05 21.9 °C 19.7 °C 1005.6 hPa SW 6.4 km/h 16.1 km/h 87% 1.3 mm
20:10 21.8 °C 19.9 °C 1005.6 hPa SW 3.2 km/h 16.1 km/h 89% 1.3 mm
20:15 21.8 °C 20.3 °C 1005.6 hPa SW 4.8 km/h 16.1 km/h 91% 1.3 mm
20:20 21.8 °C 20.5 °C 1005.6 hPa SSW 6.4 km/h 16.1 km/h 92% 1.3 mm
20:25 22 °C 20.8 °C 1005.3 hPa SW 9.7 km/h 17.7 km/h 93% 1.3 mm
20:30 22.1 °C 20.9 °C 1005.6 hPa SSW 8 km/h 17.7 km/h 93% 1.3 mm
20:35 22.1 °C 20.9 °C 1005.6 hPa SW 3.2 km/h 12.9 km/h 93% 1.3 mm
20:40 22.2 °C 21.1 °C 1006 hPa SSW 4.8 km/h 14.5 km/h 93% 1.3 mm
20:45 22.3 °C 21.3 °C 1006 hPa SW 1.6 km/h 20.9 km/h 94% 1.3 mm
20:50 22.4 °C 21.4 °C 1005.6 hPa SW 6.4 km/h 20.9 km/h 94% 1.3 mm
20:55 22.5 °C 21.5 °C 1006 hPa SSW 6.4 km/h 17.7 km/h 94% 1.3 mm
21:00 22.6 °C 21.6 °C 1006 hPa SSW 6.4 km/h 17.7 km/h 94% 1.3 mm
21:05 22.6 °C 21.6 °C 1006 hPa SW 3.2 km/h 22.5 km/h 94% 1.3 mm
21:10 22.6 °C 21.6 °C 1005.6 hPa SSW 9.7 km/h 24.1 km/h 94% 1.3 mm
21:15 22.5 °C 21.5 °C 1005.6 hPa SW 11.3 km/h 25.7 km/h 94% 1.3 mm
21:20 22.4 °C 21.4 °C 1005.6 hPa SW 8 km/h 25.7 km/h 94% 1.3 mm
21:25 22.3 °C 21.3 °C 1005.6 hPa SW 6.4 km/h 20.9 km/h 94% 1.3 mm
21:30 22.2 °C 21.1 °C 1005.6 hPa SW 8 km/h 22.5 km/h 93% 1.3 mm
21:35 22 °C 20.7 °C 1005.6 hPa SW 8 km/h 25.7 km/h 92% 1.3 mm
21:40 21.8 °C 20.3 °C 1005.6 hPa SSW 11.3 km/h 25.7 km/h 91% 1.3 mm
21:45 21.7 °C 20.1 °C 1005.6 hPa SW 8 km/h 25.7 km/h 91% 1.3 mm
21:50 21.5 °C 19.9 °C 1005.6 hPa SW 8 km/h 20.9 km/h 91% 1.3 mm
21:55 21.3 °C 19.8 °C 1005.6 hPa SW 3.2 km/h 17.7 km/h 91% 1.3 mm
22:00 21.2 °C 19.7 °C 1005.6 hPa SW 4.8 km/h 16.1 km/h 91% 1.3 mm
22:05 21.1 °C 19.8 °C 1005.6 hPa SW 6.4 km/h 16.1 km/h 92% 1.3 mm
22:10 21 °C 19.7 °C 1005.6 hPa SW 4.8 km/h 16.1 km/h 92% 1.3 mm
22:15 20.9 °C 19.6 °C 1005.6 hPa SW 6.4 km/h 16.1 km/h 92% 1.3 mm
22:20 20.8 °C 19.5 °C 1005.6 hPa SW 4.8 km/h 12.9 km/h 92% 1.3 mm
22:25 20.8 °C 19.7 °C 1005.6 hPa SW 4.8 km/h 14.5 km/h 93% 1.3 mm
22:30 20.8 °C 19.6 °C 1005.6 hPa SW 4.8 km/h 14.5 km/h 93% 1.3 mm
22:35 20.7 °C 19.5 °C 1005.6 hPa SSW 4.8 km/h 11.3 km/h 93% 1.3 mm
22:40 20.6 °C 19.3 °C 1005.6 hPa SSW 6.4 km/h 14.5 km/h 92% 1.3 mm
22:45 20.6 °C 19.2 °C 1005.6 hPa SW 4.8 km/h 16.1 km/h 92% 1.3 mm
22:50 20.5 °C 19.2 °C 1005.6 hPa SSW 4.8 km/h 16.1 km/h 92% 1.3 mm
23:00 20.4 °C 19.1 °C 1005.3 hPa SSW 3.2 km/h 17.7 km/h 92% 1.3 mm
23:05 20.3 °C 19 °C 1005.6 hPa SSW 8 km/h 14.5 km/h 92% 1.3 mm
23:10 20.3 °C 19 °C 1005.3 hPa SW 3.2 km/h 14.5 km/h 92% 1.3 mm
23:15 20.3 °C 18.9 °C 1005.3 hPa SW 4.8 km/h 14.5 km/h 92% 1.3 mm
23:20 20.3 °C 18.9 °C 1005.6 hPa SW 4.8 km/h 14.5 km/h 92% 1.3 mm
23:30 20.3 °C 18.9 °C 1005.6 hPa SSW 6.4 km/h 14.5 km/h 92% 1.3 mm
23:35 20.3 °C 19 °C 1005.3 hPa SW 6.4 km/h 17.7 km/h 92% 1.3 mm
23:40 20.3 °C 19 °C 1005.3 hPa SW 8 km/h 17.7 km/h 92% 1.3 mm
23:45 20.4 °C 18.9 °C 1005.3 hPa Calm   17.7 km/h 91% 1.3 mm
23:50 20.3 °C 18.8 °C 1005.3 hPa SSW 3.2 km/h 14.5 km/h 91% 1.3 mm
23:55 20.3 °C 18.8 °C 1005.3 hPa SSW 1.6 km/h 14.5 km/h 91% 1.3 mm
Westford Weather
Compliments of Weather Underground

 
 
Current Radar Loop:

Copyright © WestfordWeather.net 2007-2014. All rights reserved.